Wanamingo, Minnesota
Current Conditions -  °F | °C
As of 11:34 AM on Thursday 30 Oct 2014 (Local Time) from KSYN Reporting Station
Light Rain Light Rain  
Wind Chill: 44°   Ceiling: 5000
Heat Index: 44°   Visibility: 10mi
Dew Point: 38°   Wind: 0mph
Humidity: 79%   Direction: NA
Pressure: 30.08"   Gusts: NA
Location:  44.3°N, 92.79°W
Report Text: KSYN 301634Z AUTO 00000KT 10SM -RA SCT042 OVC050 07/03 A3008 RMK AO2 T00650031
Loading
Personal Weather Stations






























Interactive Weather Map
Tropical Storm Tracking
New forecast layout! Learn more

10-Day Weather Forecast

Advertisements
Track Severe Weather on mobile